LYPN weather

ParacĂ­n
Serbia

Public forecast

Using degrees Celsius for public forecast. Weather courtesy of forecast.io.

METAR (pilot weather report)

Closest report is Nis Airport, 35.5 nm (65.8 km) SSE. Retrieved 2019/09/21 11:30 UTC (26 minutes ago):

LYNI 211130Z 27005KT 220V340 CAVOK 19/M05 Q1026 NOSIG

TAF (pilot weather forecast)

Closest forecast is Nis Airport, 35.5 nm (65.8 km) SSE. Retrieved 2019/09/21 06:21 UTC (6 hours ago):

TAF LYNI 210500Z 2106/2206 05005KT CAVOK TX22/2113Z TN03/2204Z